sensor_id;sensor_type;location;lat;lon;timestamp;pressure;altitude;pressure_sealevel;temperature;humidity
59073;BME280;44859;51.934;15.554;2022-10-31T00:02:55;100051.29;;;14.26;79.85
59073;BME280;44859;51.934;15.554;2022-10-31T00:05:34;100046.94;;;14.25;79.66
59073;BME280;44859;51.934;15.554;2022-10-31T00:08:18;100047.53;;;14.23;79.55
59073;BME280;44859;51.934;15.554;2022-10-31T00:10:52;100052.48;;;14.23;79.48
59073;BME280;44859;51.934;15.554;2022-10-31T00:13:19;100054.69;;;14.22;79.30
59073;BME280;44859;51.934;15.554;2022-10-31T00:15:46;100052.81;;;14.24;79.05
59073;BME280;44859;51.934;15.554;2022-10-31T00:18:16;100053.45;;;14.25;78.95
59073;BME280;44859;51.934;15.554;2022-10-31T00:21:03;100055.92;;;14.25;78.91
59073;BME280;44859;51.934;15.554;2022-10-31T00:23:42;100052.16;;;14.23;78.84
59073;BME280;44859;51.934;15.554;2022-10-31T00:26:09;100055.56;;;14.19;78.66
59073;BME280;44859;51.934;15.554;2022-10-31T00:28:43;100053.81;;;14.16;78.74
59073;BME280;44859;51.934;15.554;2022-10-31T00:31:16;100055.75;;;14.10;78.80
59073;BME280;44859;51.934;15.554;2022-10-31T00:33:58;100054.80;;;14.08;78.81
59073;BME280;44859;51.934;15.554;2022-10-31T00:36:33;100056.10;;;14.07;78.85
59073;BME280;44859;51.934;15.554;2022-10-31T00:39:28;100053.40;;;14.08;78.70
59073;BME280;44859;51.934;15.554;2022-10-31T00:42:17;100055.41;;;14.10;78.65
59073;BME280;44859;51.934;15.554;2022-10-31T00:45:15;100056.98;;;14.16;78.37
59073;BME280;44859;51.934;15.554;2022-10-31T00:47:45;100056.84;;;14.18;78.12
59073;BME280;44859;51.934;15.554;2022-10-31T00:50:15;100059.95;;;14.19;77.98
59073;BME280;44859;51.934;15.554;2022-10-31T00:53:12;100057.85;;;14.19;77.97
59073;BME280;44859;51.934;15.554;2022-10-31T00:56:16;100059.82;;;14.19;77.51
59073;BME280;44859;51.934;15.554;2022-10-31T00:59:15;100055.95;;;14.19;77.43
59073;BME280;44859;51.934;15.554;2022-10-31T01:01:49;100055.63;;;14.18;77.13
59073;BME280;44859;51.934;15.554;2022-10-31T01:04:34;100054.20;;;14.21;77.08
59073;BME280;44859;51.934;15.554;2022-10-31T01:07:18;100054.57;;;14.21;76.84
59073;BME280;44859;51.934;15.554;2022-10-31T01:09:49;100052.02;;;14.19;76.84
59073;BME280;44859;51.934;15.554;2022-10-31T01:12:24;100053.14;;;14.15;76.67
59073;BME280;44859;51.934;15.554;2022-10-31T01:15:32;100051.25;;;14.11;76.69
59073;BME280;44859;51.934;15.554;2022-10-31T01:18:17;100055.84;;;14.06;76.72
59073;BME280;44859;51.934;15.554;2022-10-31T01:23:59;100058.39;;;13.92;76.69
59073;BME280;44859;51.934;15.554;2022-10-31T01:26:47;100057.16;;;13.83;76.95
59073;BME280;44859;51.934;15.554;2022-10-31T01:29:34;100061.17;;;13.74;77.07
59073;BME280;44859;51.934;15.554;2022-10-31T01:32:08;100059.65;;;13.67;77.26
59073;BME280;44859;51.934;15.554;2022-10-31T01:34:42;100057.16;;;13.58;77.28
59073;BME280;44859;51.934;15.554;2022-10-31T01:38:11;100056.71;;;13.44;77.57
59073;BME280;44859;51.934;15.554;2022-10-31T01:41:08;100058.66;;;13.34;77.81
59073;BME280;44859;51.934;15.554;2022-10-31T01:46:57;100054.86;;;13.13;78.10
59073;BME280;44859;51.934;15.554;2022-10-31T01:50:34;100054.58;;;12.99;78.32
59073;BME280;44859;51.934;15.554;2022-10-31T01:53:42;100055.95;;;12.87;78.70
59073;BME280;44859;51.934;15.554;2022-10-31T02:00:04;100055.69;;;12.78;79.06
59073;BME280;44859;51.934;15.554;2022-10-31T02:02:36;100058.16;;;12.81;79.24
59073;BME280;44859;51.934;15.554;2022-10-31T02:05:45;100055.21;;;12.84;79.39
59073;BME280;44859;51.934;15.554;2022-10-31T02:08:34;100053.60;;;12.88;79.13
59073;BME280;44859;51.934;15.554;2022-10-31T02:11:28;100054.92;;;12.89;79.07
59073;BME280;44859;51.934;15.554;2022-10-31T02:14:16;100053.30;;;12.90;79.17
59073;BME280;44859;51.934;15.554;2022-10-31T02:17:56;100054.81;;;12.91;79.13
59073;BME280;44859;51.934;15.554;2022-10-31T02:33:51;100064.63;;;12.89;78.99
59073;BME280;44859;51.934;15.554;2022-10-31T02:39:33;100068.73;;;12.85;78.76
59073;BME280;44859;51.934;15.554;2022-10-31T02:50:21;100062.20;;;13.05;79.53
59073;BME280;44859;51.934;15.554;2022-10-31T02:56:15;100064.83;;;13.34;79.03
59073;BME280;44859;51.934;15.554;2022-10-31T02:58:52;100066.61;;;13.44;79.01
59073;BME280;44859;51.934;15.554;2022-10-31T03:01:39;100071.25;;;13.49;78.87
59073;BME280;44859;51.934;15.554;2022-10-31T03:04:45;100069.16;;;13.55;78.73
59073;BME280;44859;51.934;15.554;2022-10-31T03:10:57;100068.61;;;13.61;78.41
59073;BME280;44859;51.934;15.554;2022-10-31T03:17:45;100076.41;;;13.64;78.33
59073;BME280;44859;51.934;15.554;2022-10-31T03:20:45;100077.20;;;13.62;78.34
59073;BME280;44859;51.934;15.554;2022-10-31T03:23:18;100077.64;;;13.61;78.26
59073;BME280;44859;51.934;15.554;2022-10-31T03:26:05;100082.17;;;13.59;78.44
59073;BME280;44859;51.934;15.554;2022-10-31T03:29:02;100085.59;;;13.55;78.35
59073;BME280;44859;51.934;15.554;2022-10-31T03:31:57;100084.05;;;13.54;78.41
59073;BME280;44859;51.934;15.554;2022-10-31T03:34:56;100085.44;;;13.54;78.61
59073;BME280;44859;51.934;15.554;2022-10-31T03:38:03;100087.45;;;13.56;78.73
59073;BME280;44859;51.934;15.554;2022-10-31T03:41:18;100092.30;;;13.57;78.73
59073;BME280;44859;51.934;15.554;2022-10-31T03:44:20;100093.66;;;13.64;78.66
59073;BME280;44859;51.934;15.554;2022-10-31T03:47:41;100090.67;;;13.64;78.51
59073;BME280;44859;51.934;15.554;2022-10-31T03:57:41;100096.16;;;13.52;78.82
59073;BME280;44859;51.934;15.554;2022-10-31T04:00:32;100096.64;;;13.49;78.75
59073;BME280;44859;51.934;15.554;2022-10-31T04:03:38;100094.02;;;13.42;79.06
59073;BME280;44859;51.934;15.554;2022-10-31T04:06:48;100100.60;;;13.38;79.05
59073;BME280;44859;51.934;15.554;2022-10-31T04:10:41;100104.44;;;13.29;79.24
59073;BME280;44859;51.934;15.554;2022-10-31T04:14:11;100109.73;;;13.22;79.36
59073;BME280;44859;51.934;15.554;2022-10-31T04:16:47;100111.95;;;13.18;79.71
59073;BME280;44859;51.934;15.554;2022-10-31T04:19:40;100114.15;;;13.19;79.87
59073;BME280;44859;51.934;15.554;2022-10-31T04:22:40;100116.86;;;13.21;80.01
59073;BME280;44859;51.934;15.554;2022-10-31T04:25:28;100113.44;;;13.19;80.06
59073;BME280;44859;51.934;15.554;2022-10-31T04:28:03;100109.73;;;13.16;80.02
59073;BME280;44859;51.934;15.554;2022-10-31T04:30:41;100112.61;;;13.12;80.08
59073;BME280;44859;51.934;15.554;2022-10-31T04:34:30;100112.02;;;13.06;80.26
59073;BME280;44859;51.934;15.554;2022-10-31T04:37:37;100110.42;;;13.03;80.68
59073;BME280;44859;51.934;15.554;2022-10-31T04:40:58;100110.61;;;12.97;80.71
59073;BME280;44859;51.934;15.554;2022-10-31T04:44:19;100114.95;;;12.91;80.69
59073;BME280;44859;51.934;15.554;2022-10-31T04:47:08;100109.21;;;12.86;81.02
59073;BME280;44859;51.934;15.554;2022-10-31T04:50:19;100110.95;;;12.83;81.10
59073;BME280;44859;51.934;15.554;2022-10-31T04:53:05;100109.40;;;12.83;81.32
59073;BME280;44859;51.934;15.554;2022-10-31T04:55:54;100109.96;;;12.79;81.48
59073;BME280;44859;51.934;15.554;2022-10-31T04:58:47;100107.86;;;12.75;81.82
59073;BME280;44859;51.934;15.554;2022-10-31T05:01:17;100107.16;;;12.78;82.28
59073;BME280;44859;51.934;15.554;2022-10-31T05:03:52;100105.17;;;12.89;82.08
59073;BME280;44859;51.934;15.554;2022-10-31T05:06:25;100104.98;;;12.92;82.17
59073;BME280;44859;51.934;15.554;2022-10-31T05:09:20;100107.19;;;12.91;82.31
59073;BME280;44859;51.934;15.554;2022-10-31T05:12:45;100108.14;;;12.93;82.20
59073;BME280;44859;51.934;15.554;2022-10-31T05:15:25;100104.08;;;13.00;82.45
59073;BME280;44859;51.934;15.554;2022-10-31T05:18:00;100100.63;;;13.05;82.43
59073;BME280;44859;51.934;15.554;2022-10-31T05:20:40;100103.59;;;13.09;82.49
59073;BME280;44859;51.934;15.554;2022-10-31T05:23:28;100105.50;;;13.09;82.40
59073;BME280;44859;51.934;15.554;2022-10-31T05:26:13;100107.11;;;13.06;82.32
59073;BME280;44859;51.934;15.554;2022-10-31T05:29:21;100111.30;;;13.00;82.48
59073;BME280;44859;51.934;15.554;2022-10-31T05:32:18;100115.64;;;12.91;82.64
59073;BME280;44859;51.934;15.554;2022-10-31T05:35:19;100113.10;;;12.83;82.69
59073;BME280;44859;51.934;15.554;2022-10-31T05:38:27;100117.22;;;12.74;83.13
59073;BME280;44859;51.934;15.554;2022-10-31T05:41:07;100117.38;;;12.71;83.17
59073;BME280;44859;51.934;15.554;2022-10-31T05:44:04;100121.72;;;12.69;83.10
59073;BME280;44859;51.934;15.554;2022-10-31T05:46:48;100122.41;;;12.66;83.25
59073;BME280;44859;51.934;15.554;2022-10-31T05:52:17;100121.33;;;12.59;83.65
59073;BME280;44859;51.934;15.554;2022-10-31T05:55:04;100123.37;;;12.58;83.61
59073;BME280;44859;51.934;15.554;2022-10-31T05:57:39;100129.17;;;12.54;83.81
59073;BME280;44859;51.934;15.554;2022-10-31T06:00:26;100132.64;;;12.49;84.03
59073;BME280;44859;51.934;15.554;2022-10-31T06:03:19;100129.88;;;12.45;84.14
59073;BME280;44859;51.934;15.554;2022-10-31T06:09:13;100139.41;;;12.40;84.28
59073;BME280;44859;51.934;15.554;2022-10-31T06:12:01;100140.38;;;12.38;84.42
59073;BME280;44859;51.934;15.554;2022-10-31T06:15:04;100141.67;;;12.37;84.56
59073;BME280;44859;51.934;15.554;2022-10-31T06:17:36;100145.98;;;12.36;84.44
59073;BME280;44859;51.934;15.554;2022-10-31T06:20:07;100149.78;;;12.34;84.55
59073;BME280;44859;51.934;15.554;2022-10-31T06:22:34;100148.81;;;12.32;84.73
59073;BME280;44859;51.934;15.554;2022-10-31T06:25:01;100154.26;;;12.32;84.46
59073;BME280;44859;51.934;15.554;2022-10-31T06:27:29;100153.74;;;12.32;84.54
59073;BME280;44859;51.934;15.554;2022-10-31T06:29:56;100157.00;;;12.34;84.61
59073;BME280;44859;51.934;15.554;2022-10-31T06:32:22;100160.45;;;12.35;84.61
59073;BME280;44859;51.934;15.554;2022-10-31T06:34:50;100162.63;;;12.34;84.70
59073;BME280;44859;51.934;15.554;2022-10-31T06:37:17;100160.63;;;12.32;84.54
59073;BME280;44859;51.934;15.554;2022-10-31T06:39:44;100167.52;;;12.31;84.70
59073;BME280;44859;51.934;15.554;2022-10-31T06:42:11;100166.10;;;12.32;84.81
59073;BME280;44859;51.934;15.554;2022-10-31T06:44:38;100172.81;;;12.34;84.61
59073;BME280;44859;51.934;15.554;2022-10-31T06:47:05;100178.37;;;12.36;84.44
59073;BME280;44859;51.934;15.554;2022-10-31T06:49:32;100181.44;;;12.38;84.65
59073;BME280;44859;51.934;15.554;2022-10-31T06:51:58;100182.55;;;12.40;84.58
59073;BME280;44859;51.934;15.554;2022-10-31T06:54:25;100182.88;;;12.45;84.58
59073;BME280;44859;51.934;15.554;2022-10-31T06:56:52;100184.02;;;12.47;84.66
59073;BME280;44859;51.934;15.554;2022-10-31T06:59:19;100186.90;;;12.48;84.53
59073;BME280;44859;51.934;15.554;2022-10-31T07:01:46;100188.48;;;12.52;84.53
59073;BME280;44859;51.934;15.554;2022-10-31T07:04:13;100188.98;;;12.56;84.24
59073;BME280;44859;51.934;15.554;2022-10-31T07:06:40;100190.91;;;12.60;84.35
59073;BME280;44859;51.934;15.554;2022-10-31T07:09:07;100196.85;;;12.65;84.49
59073;BME280;44859;51.934;15.554;2022-10-31T07:11:34;100194.88;;;12.69;84.19
59073;BME280;44859;51.934;15.554;2022-10-31T07:14:01;100199.23;;;12.73;84.21
59073;BME280;44859;51.934;15.554;2022-10-31T07:16:28;100201.10;;;12.78;84.00
59073;BME280;44859;51.934;15.554;2022-10-31T07:18:58;100207.48;;;12.81;84.16
59073;BME280;44859;51.934;15.554;2022-10-31T07:21:31;100215.76;;;12.81;84.02
59073;BME280;44859;51.934;15.554;2022-10-31T07:23:58;100214.35;;;12.81;83.95
59073;BME280;44859;51.934;15.554;2022-10-31T07:26:25;100214.45;;;12.82;83.75
59073;BME280;44859;51.934;15.554;2022-10-31T07:28:52;100216.73;;;12.86;83.82
59073;BME280;44859;51.934;15.554;2022-10-31T07:31:20;100220.73;;;12.87;83.67
59073;BME280;44859;51.934;15.554;2022-10-31T07:33:47;100221.09;;;12.87;83.54
59073;BME280;44859;51.934;15.554;2022-10-31T07:36:14;100224.02;;;12.88;83.60
59073;BME280;44859;51.934;15.554;2022-10-31T07:38:40;100227.65;;;12.89;83.54
59073;BME280;44859;51.934;15.554;2022-10-31T07:41:07;100229.47;;;12.92;83.43
59073;BME280;44859;51.934;15.554;2022-10-31T07:43:35;100231.48;;;12.93;83.36
59073;BME280;44859;51.934;15.554;2022-10-31T07:46:02;100228.27;;;12.94;83.64
59073;BME280;44859;51.934;15.554;2022-10-31T07:48:28;100231.89;;;12.96;83.51
59073;BME280;44859;51.934;15.554;2022-10-31T07:50:55;100231.90;;;13.00;83.46
59073;BME280;44859;51.934;15.554;2022-10-31T07:53:22;100230.02;;;13.02;83.51
59073;BME280;44859;51.934;15.554;2022-10-31T07:55:50;100232.23;;;13.04;83.34
59073;BME280;44859;51.934;15.554;2022-10-31T07:58:17;100229.13;;;13.06;83.44
59073;BME280;44859;51.934;15.554;2022-10-31T08:00:46;100233.11;;;13.07;83.33
59073;BME280;44859;51.934;15.554;2022-10-31T08:03:18;100239.00;;;13.09;83.31
59073;BME280;44859;51.934;15.554;2022-10-31T08:05:46;100235.92;;;13.10;83.47
59073;BME280;44859;51.934;15.554;2022-10-31T08:08:13;100240.45;;;13.12;83.44
59073;BME280;44859;51.934;15.554;2022-10-31T08:10:43;100239.77;;;13.14;83.55
59073;BME280;44859;51.934;15.554;2022-10-31T08:20:29;100240.17;;;13.23;83.35
59073;BME280;44859;51.934;15.554;2022-10-31T08:23:00;100239.65;;;13.27;83.30
59073;BME280;44859;51.934;15.554;2022-10-31T08:25:29;100242.20;;;13.32;83.32
59073;BME280;44859;51.934;15.554;2022-10-31T08:28:03;100244.08;;;13.37;83.16
59073;BME280;44859;51.934;15.554;2022-10-31T08:30:33;100240.80;;;13.39;83.23
59073;BME280;44859;51.934;15.554;2022-10-31T08:35:33;100240.16;;;13.44;83.16
59073;BME280;44859;51.934;15.554;2022-10-31T08:38:00;100241.80;;;13.50;83.07
59073;BME280;44859;51.934;15.554;2022-10-31T08:40:31;100243.71;;;13.54;83.28
59073;BME280;44859;51.934;15.554;2022-10-31T08:43:03;100244.63;;;13.56;83.35
59073;BME280;44859;51.934;15.554;2022-10-31T08:45:34;100244.45;;;13.60;83.26
59073;BME280;44859;51.934;15.554;2022-10-31T08:48:03;100245.35;;;13.63;83.28
59073;BME280;44859;51.934;15.554;2022-10-31T08:50:34;100248.15;;;13.66;83.25
59073;BME280;44859;51.934;15.554;2022-10-31T08:53:05;100246.19;;;13.70;83.24
59073;BME280;44859;51.934;15.554;2022-10-31T08:55:43;100246.81;;;13.75;83.21
59073;BME280;44859;51.934;15.554;2022-10-31T08:58:23;100247.83;;;13.79;83.16
59073;BME280;44859;51.934;15.554;2022-10-31T09:00:52;100243.83;;;13.81;83.03
59073;BME280;44859;51.934;15.554;2022-10-31T09:05:50;100247.98;;;13.86;83.09
59073;BME280;44859;51.934;15.554;2022-10-31T09:08:17;100248.36;;;13.88;82.95
59073;BME280;44859;51.934;15.554;2022-10-31T09:10:45;100246.52;;;13.93;82.83
59073;BME280;44859;51.934;15.554;2022-10-31T09:13:14;100248.50;;;13.96;82.88
59073;BME280;44859;51.934;15.554;2022-10-31T09:15:43;100249.05;;;13.98;82.67
59073;BME280;44859;51.934;15.554;2022-10-31T09:18:11;100252.23;;;14.01;82.83
59073;BME280;44859;51.934;15.554;2022-10-31T09:20:39;100245.61;;;14.07;82.74
59073;BME280;44859;51.934;15.554;2022-10-31T09:23:10;100245.70;;;14.11;82.63
59073;BME280;44859;51.934;15.554;2022-10-31T09:25:38;100250.32;;;14.17;82.55
59073;BME280;44859;51.934;15.554;2022-10-31T09:28:07;100249.04;;;14.24;82.44
59073;BME280;44859;51.934;15.554;2022-10-31T09:30:41;100252.63;;;14.32;82.35
59073;BME280;44859;51.934;15.554;2022-10-31T09:33:11;100253.13;;;14.36;82.10
59073;BME280;44859;51.934;15.554;2022-10-31T09:35:38;100254.70;;;14.42;82.07
59073;BME280;44859;51.934;15.554;2022-10-31T09:38:09;100254.70;;;14.49;82.14
59073;BME280;44859;51.934;15.554;2022-10-31T09:40:42;100253.98;;;14.52;81.67
59073;BME280;44859;51.934;15.554;2022-10-31T09:51:28;100261.85;;;14.66;81.57
59073;BME280;44859;51.934;15.554;2022-10-31T09:54:01;100262.54;;;14.70;81.37
59073;BME280;44859;51.934;15.554;2022-10-31T09:56:32;100265.31;;;14.73;81.30
59073;BME280;44859;51.934;15.554;2022-10-31T09:59:03;100269.76;;;14.79;81.21
59073;BME280;44859;51.934;15.554;2022-10-31T10:01:46;100272.59;;;14.85;81.10
59073;BME280;44859;51.934;15.554;2022-10-31T10:06:57;100272.19;;;14.92;80.67
59073;BME280;44859;51.934;15.554;2022-10-31T10:09:26;100274.63;;;14.98;80.76
59073;BME280;44859;51.934;15.554;2022-10-31T10:12:13;100275.99;;;15.05;80.62
59073;BME280;44859;51.934;15.554;2022-10-31T10:17:42;100274.50;;;15.16;79.98
59073;BME280;44859;51.934;15.554;2022-10-31T10:25:39;100275.96;;;15.32;80.02
59073;BME280;44859;51.934;15.554;2022-10-31T10:28:26;100274.70;;;15.39;80.05
59073;BME280;44859;51.934;15.554;2022-10-31T10:36:00;100273.52;;;15.52;79.58
59073;BME280;44859;51.934;15.554;2022-10-31T10:38:42;100271.66;;;15.57;79.45
59073;BME280;44859;51.934;15.554;2022-10-31T10:41:19;100265.00;;;15.61;79.57
59073;BME280;44859;51.934;15.554;2022-10-31T10:43:58;100270.98;;;15.68;79.56
59073;BME280;44859;51.934;15.554;2022-10-31T10:46:54;100266.51;;;15.71;79.42
59073;BME280;44859;51.934;15.554;2022-10-31T10:49:50;100268.27;;;15.81;79.13
59073;BME280;44859;51.934;15.554;2022-10-31T10:55:51;100261.96;;;15.96;78.91
59073;BME280;44859;51.934;15.554;2022-10-31T10:58:23;100261.77;;;16.07;78.67
59073;BME280;44859;51.934;15.554;2022-10-31T11:00:52;100260.19;;;16.18;78.29
59073;BME280;44859;51.934;15.554;2022-10-31T11:03:23;100256.77;;;16.28;78.29
59073;BME280;44859;51.934;15.554;2022-10-31T11:05:53;100253.98;;;16.35;77.98
59073;BME280;44859;51.934;15.554;2022-10-31T11:08:28;100252.27;;;16.39;77.96
59073;BME280;44859;51.934;15.554;2022-10-31T11:13:29;100252.35;;;16.49;77.44
59073;BME280;44859;51.934;15.554;2022-10-31T11:16:01;100247.09;;;16.56;77.31
59073;BME280;44859;51.934;15.554;2022-10-31T11:18:37;100246.20;;;16.62;77.22
59073;BME280;44859;51.934;15.554;2022-10-31T11:21:21;100246.38;;;16.67;76.62
59073;BME280;44859;51.934;15.554;2022-10-31T11:26:38;100241.23;;;16.77;76.34
59073;BME280;44859;51.934;15.554;2022-10-31T11:31:52;100245.10;;;16.89;76.37
59073;BME280;44859;51.934;15.554;2022-10-31T11:34:36;100245.73;;;17.01;75.95
59073;BME280;44859;51.934;15.554;2022-10-31T11:37:24;100245.77;;;17.15;75.83
59073;BME280;44859;51.934;15.554;2022-10-31T11:39:56;100243.98;;;17.23;75.28
59073;BME280;44859;51.934;15.554;2022-10-31T11:42:27;100241.70;;;17.25;75.34
59073;BME280;44859;51.934;15.554;2022-10-31T11:44:56;100242.38;;;17.32;74.87
59073;BME280;44859;51.934;15.554;2022-10-31T11:47:28;100244.21;;;17.36;74.70
59073;BME280;44859;51.934;15.554;2022-10-31T11:49:57;100243.95;;;17.34;74.33
59073;BME280;44859;51.934;15.554;2022-10-31T11:52:36;100242.77;;;17.41;74.52
59073;BME280;44859;51.934;15.554;2022-10-31T11:57:47;100240.21;;;17.70;74.37
59073;BME280;44859;51.934;15.554;2022-10-31T12:00:37;100238.48;;;17.84;73.85
59073;BME280;44859;51.934;15.554;2022-10-31T12:05:53;100229.73;;;18.07;73.38
59073;BME280;44859;51.934;15.554;2022-10-31T12:08:54;100225.50;;;18.26;72.86
59073;BME280;44859;51.934;15.554;2022-10-31T12:14:19;100224.95;;;18.48;72.20
59073;BME280;44859;51.934;15.554;2022-10-31T12:17:14;100222.32;;;18.57;72.15
59073;BME280;44859;51.934;15.554;2022-10-31T12:25:46;100212.55;;;19.18;70.33
59073;BME280;44859;51.934;15.554;2022-10-31T12:42:05;100193.60;;;19.30;68.44
59073;BME280;44859;51.934;15.554;2022-10-31T12:50:53;100191.23;;;19.04;68.28
59073;BME280;44859;51.934;15.554;2022-10-31T13:04:39;100177.23;;;18.74;69.07
59073;BME280;44859;51.934;15.554;2022-10-31T13:07:15;100176.35;;;18.86;68.75
59073;BME280;44859;51.934;15.554;2022-10-31T13:12:44;100174.25;;;19.25;68.39
59073;BME280;44859;51.934;15.554;2022-10-31T13:15:28;100175.02;;;19.47;68.08
59073;BME280;44859;51.934;15.554;2022-10-31T13:18:42;100178.56;;;19.67;67.69
59073;BME280;44859;51.934;15.554;2022-10-31T13:21:34;100171.48;;;19.78;67.53
59073;BME280;44859;51.934;15.554;2022-10-31T13:24:07;100169.84;;;19.98;67.23
59073;BME280;44859;51.934;15.554;2022-10-31T13:26:57;100168.93;;;20.00;66.69
59073;BME280;44859;51.934;15.554;2022-10-31T13:29:40;100166.94;;;20.01;66.18
59073;BME280;44859;51.934;15.554;2022-10-31T13:32:10;100166.75;;;20.01;66.26
59073;BME280;44859;51.934;15.554;2022-10-31T13:35:00;100167.75;;;20.08;66.27
59073;BME280;44859;51.934;15.554;2022-10-31T13:37:46;100172.09;;;20.23;65.92
59073;BME280;44859;51.934;15.554;2022-10-31T13:43:19;100164.55;;;20.23;65.31
59073;BME280;44859;51.934;15.554;2022-10-31T13:45:53;100164.73;;;20.21;65.45
59073;BME280;44859;51.934;15.554;2022-10-31T13:51:06;100160.06;;;20.15;65.36
59073;BME280;44859;51.934;15.554;2022-10-31T13:56:29;100159.92;;;20.25;65.32
59073;BME280;44859;51.934;15.554;2022-10-31T14:01:46;100163.77;;;20.20;65.01
59073;BME280;44859;51.934;15.554;2022-10-31T14:04:21;100166.98;;;20.07;64.92
59073;BME280;44859;51.934;15.554;2022-10-31T14:09:33;100169.27;;;19.99;65.13
59073;BME280;44859;51.934;15.554;2022-10-31T14:18:05;100169.66;;;20.18;65.25
59073;BME280;44859;51.934;15.554;2022-10-31T14:21:36;100163.71;;;20.25;65.35
59073;BME280;44859;51.934;15.554;2022-10-31T14:24:51;100160.50;;;19.97;65.43
59073;BME280;44859;51.934;15.554;2022-10-31T14:27:50;100155.58;;;19.62;65.93
59073;BME280;44859;51.934;15.554;2022-10-31T14:30:23;100161.91;;;19.30;66.47
59073;BME280;44859;51.934;15.554;2022-10-31T14:33:02;100162.52;;;18.97;66.95
59073;BME280;44859;51.934;15.554;2022-10-31T14:35:53;100160.53;;;18.65;67.68
59073;BME280;44859;51.934;15.554;2022-10-31T14:44:41;100162.48;;;18.03;69.75
59073;BME280;44859;51.934;15.554;2022-10-31T14:56:00;100160.56;;;17.83;71.01
59073;BME280;44859;51.934;15.554;2022-10-31T14:58:54;100158.88;;;17.65;71.39
59073;BME280;44859;51.934;15.554;2022-10-31T15:01:52;100159.31;;;17.36;71.93
59073;BME280;44859;51.934;15.554;2022-10-31T15:04:36;100160.05;;;17.05;72.54
59073;BME280;44859;51.934;15.554;2022-10-31T15:09:35;100161.09;;;16.64;73.67
59073;BME280;44859;51.934;15.554;2022-10-31T15:12:27;100160.10;;;16.42;74.29
59073;BME280;44859;51.934;15.554;2022-10-31T15:15:16;100158.31;;;16.16;75.12
59073;BME280;44859;51.934;15.554;2022-10-31T15:17:54;100162.20;;;15.94;75.59
59073;BME280;44859;51.934;15.554;2022-10-31T15:20:28;100162.02;;;15.80;75.93
59073;BME280;44859;51.934;15.554;2022-10-31T15:23:14;100161.70;;;15.66;76.44
59073;BME280;44859;51.934;15.554;2022-10-31T15:25:46;100167.19;;;15.51;77.18
59073;BME280;44859;51.934;15.554;2022-10-31T15:28:22;100168.05;;;15.38;77.65
59073;BME280;44859;51.934;15.554;2022-10-31T15:31:03;100167.71;;;15.21;78.26
59073;BME280;44859;51.934;15.554;2022-10-31T15:33:47;100169.83;;;15.00;78.86
59073;BME280;44859;51.934;15.554;2022-10-31T15:36:24;100169.72;;;14.82;79.70
59073;BME280;44859;51.934;15.554;2022-10-31T15:39:00;100167.90;;;14.65;80.48
59073;BME280;44859;51.934;15.554;2022-10-31T15:41:34;100167.29;;;14.51;80.88
59073;BME280;44859;51.934;15.554;2022-10-31T15:44:15;100166.46;;;14.37;81.32
59073;BME280;44859;51.934;15.554;2022-10-31T15:46:54;100165.96;;;14.28;81.48
59073;BME280;44859;51.934;15.554;2022-10-31T15:52:00;100161.23;;;14.06;82.21
59073;BME280;44859;51.934;15.554;2022-10-31T15:54:38;100160.00;;;13.96;82.57
59073;BME280;44859;51.934;15.554;2022-10-31T15:57:16;100163.88;;;13.90;82.71
59073;BME280;44859;51.934;15.554;2022-10-31T15:59:47;100166.01;;;13.84;83.19
59073;BME280;44859;51.934;15.554;2022-10-31T16:02:26;100163.13;;;13.79;83.59
59073;BME280;44859;51.934;15.554;2022-10-31T16:05:18;100167.29;;;13.74;83.93
59073;BME280;44859;51.934;15.554;2022-10-31T16:07:56;100168.71;;;13.67;84.28
59073;BME280;44859;51.934;15.554;2022-10-31T16:10:25;100163.92;;;13.61;84.64
59073;BME280;44859;51.934;15.554;2022-10-31T16:12:53;100162.42;;;13.56;84.85
59073;BME280;44859;51.934;15.554;2022-10-31T16:15:21;100168.60;;;13.53;85.14
59073;BME280;44859;51.934;15.554;2022-10-31T16:17:50;100164.50;;;13.47;85.43
59073;BME280;44859;51.934;15.554;2022-10-31T16:20:22;100169.35;;;13.42;85.60
59073;BME280;44859;51.934;15.554;2022-10-31T16:22:52;100166.47;;;13.37;85.93
59073;BME280;44859;51.934;15.554;2022-10-31T16:25:27;100167.08;;;13.28;86.28
59073;BME280;44859;51.934;15.554;2022-10-31T16:28:05;100163.24;;;13.21;86.59
59073;BME280;44859;51.934;15.554;2022-10-31T16:30:38;100163.94;;;13.15;86.92
59073;BME280;44859;51.934;15.554;2022-10-31T16:35:53;100161.52;;;13.04;87.47
59073;BME280;44859;51.934;15.554;2022-10-31T16:38:39;100159.05;;;13.00;87.60
59073;BME280;44859;51.934;15.554;2022-10-31T16:41:07;100159.15;;;12.95;87.90
59073;BME280;44859;51.934;15.554;2022-10-31T16:43:34;100161.33;;;12.87;87.97
59073;BME280;44859;51.934;15.554;2022-10-31T16:46:01;100158.98;;;12.78;88.34
59073;BME280;44859;51.934;15.554;2022-10-31T16:48:28;100158.45;;;12.71;88.55
59073;BME280;44859;51.934;15.554;2022-10-31T16:50:55;100160.75;;;12.68;88.57
59073;BME280;44859;51.934;15.554;2022-10-31T16:53:22;100159.52;;;12.64;88.78
59073;BME280;44859;51.934;15.554;2022-10-31T16:56:02;100154.59;;;12.61;89.15
59073;BME280;44859;51.934;15.554;2022-10-31T16:58:33;100159.11;;;12.58;89.29
59073;BME280;44859;51.934;15.554;2022-10-31T17:01:04;100156.60;;;12.52;89.75
59073;BME280;44859;51.934;15.554;2022-10-31T17:03:31;100157.13;;;12.45;89.82
59073;BME280;44859;51.934;15.554;2022-10-31T17:05:59;100157.11;;;12.42;89.88